createdAt,value
2022-10-11T00:02:02.483Z,92.03
2022-10-11T00:04:29.057Z,93.46
2022-10-11T00:06:55.750Z,93.22
2022-10-11T00:09:22.517Z,93.24
2022-10-11T00:11:49.169Z,94.98
2022-10-11T00:14:16.004Z,93.58
2022-10-11T00:16:44.480Z,93.48
2022-10-11T00:19:11.602Z,92.97
2022-10-11T00:21:38.741Z,91.09
2022-10-11T00:24:06.055Z,91.24
2022-10-11T00:26:33.427Z,90.37
2022-10-11T00:29:00.043Z,90.58
2022-10-11T00:31:26.773Z,90.41
2022-10-11T00:33:54.615Z,90.23
2022-10-11T00:36:22.442Z,89.33
2022-10-11T00:38:49.153Z,87.08
2022-10-11T00:41:16.798Z,87.59
2022-10-11T00:43:44.230Z,87.98
2022-10-11T00:46:13.585Z,87.83
2022-10-11T00:48:41.528Z,88.31
2022-10-11T00:51:20.399Z,87.08
2022-10-11T00:53:50.746Z,87.08
2022-10-11T00:56:23.735Z,87.98
2022-10-11T00:58:50.804Z,88.04
2022-10-11T01:01:17.610Z,88.27
2022-10-11T01:03:45.022Z,88.08
2022-10-11T01:06:11.621Z,87.68
2022-10-11T01:08:38.814Z,88.58
2022-10-11T01:11:06.500Z,89.36
2022-10-11T01:13:57.993Z,88.57
2022-10-11T01:16:35.920Z,88.87
2022-10-11T01:19:13.119Z,88.67
2022-10-11T01:22:22.532Z,88.37
2022-10-11T01:25:02.202Z,89.56
2022-10-11T01:27:44.834Z,89.09
2022-10-11T01:30:36.794Z,88.78
2022-10-11T01:33:29.532Z,88.98
2022-10-11T01:36:11.771Z,88.51
2022-10-11T01:38:47.048Z,88.26
2022-10-11T01:41:25.796Z,88.79
2022-10-11T01:43:57.602Z,89.67
2022-10-11T01:46:25.167Z,89.87
2022-10-11T01:48:56.262Z,90.47
2022-10-11T01:51:26.817Z,90.63
2022-10-11T01:54:18.401Z,90.50
2022-10-11T01:56:44.953Z,91.15
2022-10-11T01:59:11.499Z,93.08
2022-10-11T02:02:02.619Z,92.73
2022-10-11T02:04:44.827Z,92.70
2022-10-11T02:07:25.334Z,93.10
2022-10-11T02:10:27.354Z,93.00
2022-10-11T02:13:01.934Z,93.46
2022-10-11T02:15:31.430Z,93.81
2022-10-11T02:18:02.315Z,95.17
2022-10-11T02:20:32.174Z,94.70
2022-10-11T02:23:08.189Z,93.82
2022-10-11T02:25:36.376Z,93.72
2022-10-11T02:28:12.627Z,93.69
2022-10-11T02:30:42.008Z,92.51
2022-10-11T02:33:13.357Z,91.85
2022-10-11T02:35:47.360Z,91.37
2022-10-11T02:38:39.304Z,92.59
2022-10-11T02:41:15.879Z,92.48
2022-10-11T02:43:51.885Z,92.05
2022-10-11T02:46:18.732Z,92.30
2022-10-11T02:48:45.284Z,91.81
2022-10-11T02:51:14.132Z,93.18
2022-10-11T02:53:40.710Z,93.25
2022-10-11T02:56:07.998Z,93.71
2022-10-11T02:58:34.957Z,93.33
2022-10-11T03:01:01.745Z,93.64
2022-10-11T03:03:28.358Z,93.80
2022-10-11T03:06:00.338Z,93.42
2022-10-11T03:08:27.180Z,92.74
2022-10-11T03:10:53.807Z,93.17
2022-10-11T03:13:20.794Z,93.47
2022-10-11T03:16:02.337Z,92.14
2022-10-11T03:18:30.962Z,92.88
2022-10-11T03:20:57.670Z,92.45
2022-10-11T03:23:24.296Z,92.02
2022-10-11T03:25:52.082Z,91.47
2022-10-11T03:28:19.515Z,92.16
2022-10-11T03:30:50.362Z,91.68
2022-10-11T03:33:17.614Z,91.57
2022-10-11T03:35:48.267Z,91.69
2022-10-11T03:38:18.428Z,91.54
2022-10-11T03:40:45.048Z,93.30
2022-10-11T03:43:12.162Z,93.50
2022-10-11T03:45:39.014Z,92.40
2022-10-11T03:48:05.850Z,90.74
2022-10-11T03:50:32.435Z,91.82
2022-10-11T03:52:59.125Z,91.59
2022-10-11T03:55:26.075Z,91.73
2022-10-11T03:57:52.701Z,90.97
2022-10-11T04:00:20.244Z,91.32
2022-10-11T04:02:46.883Z,90.44
2022-10-11T04:05:13.831Z,90.71
2022-10-11T04:07:41.227Z,87.77
2022-10-11T04:10:08.285Z,88.38
2022-10-11T04:12:36.607Z,86.91
2022-10-11T04:15:03.460Z,87.77
2022-10-11T04:17:30.050Z,85.61
2022-10-11T04:19:56.709Z,86.01
2022-10-11T04:22:23.408Z,85.83
2022-10-11T04:24:50.072Z,85.71
2022-10-11T04:27:16.639Z,86.66
2022-10-11T04:29:43.371Z,86.76
2022-10-11T04:32:09.909Z,85.90
2022-10-11T04:34:36.570Z,86.32
2022-10-11T04:37:03.151Z,85.19
2022-10-11T04:39:29.873Z,85.38
2022-10-11T04:41:56.506Z,85.44
2022-10-11T04:44:23.194Z,85.93
2022-10-11T04:46:49.721Z,85.73
2022-10-11T04:49:16.383Z,86.38
2022-10-11T04:51:43.143Z,86.03
2022-10-11T04:54:09.803Z,87.36
2022-10-11T04:56:36.374Z,88.14
2022-10-11T04:59:03.103Z,88.04
2022-10-11T05:01:29.658Z,88.56
2022-10-11T05:03:56.367Z,88.92
2022-10-11T05:06:23.000Z,89.47
2022-10-11T05:08:49.655Z,89.32
2022-10-11T05:11:17.037Z,89.51
2022-10-11T05:13:45.219Z,89.59
2022-10-11T05:16:13.308Z,89.78
2022-10-11T05:18:40.685Z,89.85
2022-10-11T05:21:14.978Z,90.54
2022-10-11T05:23:42.330Z,92.14
2022-10-11T05:26:09.357Z,92.42
2022-10-11T05:28:36.557Z,92.53
2022-10-11T05:31:03.769Z,92.63
2022-10-11T05:33:31.078Z,92.79
2022-10-11T05:35:57.758Z,93.42
2022-10-11T05:38:24.370Z,92.97
2022-10-11T05:40:51.228Z,92.63
2022-10-11T05:43:18.412Z,92.10
2022-10-11T05:45:46.433Z,92.03
2022-10-11T05:48:13.095Z,92.41
2022-10-11T05:50:39.862Z,91.98
2022-10-11T05:53:06.882Z,92.24
2022-10-11T05:55:42.095Z,93.04
2022-10-11T05:58:12.791Z,93.14
2022-10-11T06:00:39.483Z,92.93
2022-10-11T06:03:07.908Z,93.57
2022-10-11T06:05:35.773Z,93.80
2022-10-11T06:08:06.402Z,94.24
2022-10-11T06:10:33.496Z,94.02
2022-10-11T06:13:00.378Z,92.88
2022-10-11T06:15:27.524Z,93.27
2022-10-11T06:17:54.205Z,93.36
2022-10-11T06:20:20.882Z,92.24
2022-10-11T06:22:47.445Z,91.94
2022-10-11T06:25:14.208Z,91.93
2022-10-11T06:27:40.818Z,90.90
2022-10-11T06:30:08.302Z,90.75
2022-10-11T06:32:35.105Z,91.21
2022-10-11T06:35:03.375Z,92.74
2022-10-11T06:37:30.420Z,93.41
2022-10-11T06:39:57.125Z,93.81
2022-10-11T06:42:23.689Z,94.45
2022-10-11T06:44:50.319Z,94.21
2022-10-11T06:47:16.933Z,93.93
2022-10-11T06:49:43.580Z,94.73
2022-10-11T06:52:10.215Z,95.04
2022-10-11T06:54:40.069Z,94.28
2022-10-11T06:57:10.080Z,95.15
2022-10-11T06:59:36.721Z,94.05
2022-10-11T07:02:03.438Z,94.25
2022-10-11T07:04:30.187Z,94.87
2022-10-11T07:06:57.016Z,94.50
2022-10-11T07:09:23.705Z,94.61
2022-10-11T07:11:50.390Z,94.74
2022-10-11T07:14:17.002Z,94.72
2022-10-11T07:16:43.636Z,94.02
2022-10-11T07:19:10.419Z,94.39
2022-10-11T07:21:37.165Z,94.70
2022-10-11T07:24:04.018Z,92.77
2022-10-11T07:26:37.455Z,92.82
2022-10-11T07:29:06.815Z,92.26
2022-10-11T07:31:33.339Z,92.46
2022-10-11T07:34:00.084Z,92.61
2022-10-11T07:36:26.737Z,92.42
2022-10-11T07:38:53.423Z,92.99
2022-10-11T07:41:20.578Z,92.93
2022-10-11T07:43:49.519Z,93.70
2022-10-11T07:46:17.284Z,92.37
2022-10-11T07:48:43.988Z,93.17
2022-10-11T07:51:17.041Z,92.50
2022-10-11T07:53:48.956Z,92.56
2022-10-11T07:56:21.906Z,92.00
2022-10-11T07:58:54.183Z,91.45
2022-10-11T08:01:21.682Z,91.75
2022-10-11T08:03:49.604Z,91.85
2022-10-11T08:06:20.526Z,92.83
2022-10-11T08:08:47.748Z,92.68
2022-10-11T08:11:26.510Z,93.29
2022-10-11T08:13:53.662Z,92.82
2022-10-11T08:16:21.274Z,93.31
2022-10-11T08:18:48.094Z,91.85
2022-10-11T08:21:17.688Z,91.18
2022-10-11T08:23:44.756Z,91.21
2022-10-11T08:26:11.418Z,92.30
2022-10-11T08:28:38.354Z,92.50
2022-10-11T08:31:05.079Z,92.06
2022-10-11T08:33:31.791Z,91.99
2022-10-11T08:35:58.930Z,92.15
2022-10-11T08:38:25.635Z,92.09
2022-10-11T08:40:55.629Z,91.60
2022-10-11T08:43:43.995Z,92.63
2022-10-11T08:46:13.034Z,92.54
2022-10-11T08:48:46.352Z,92.48
2022-10-11T08:51:45.283Z,92.98
2022-10-11T08:54:26.069Z,92.34
2022-10-11T08:56:52.831Z,93.13
2022-10-11T08:59:45.758Z,93.15
2022-10-11T09:02:25.301Z,92.39
2022-10-11T09:04:54.718Z,92.04
2022-10-11T09:07:30.418Z,92.45
2022-10-11T09:10:11.564Z,92.90
2022-10-11T09:12:56.987Z,92.44
2022-10-11T09:15:29.057Z,93.03
2022-10-11T09:18:10.444Z,92.08
2022-10-11T09:21:03.330Z,92.80
2022-10-11T09:23:50.953Z,91.68
2022-10-11T09:26:25.656Z,90.68
2022-10-11T09:29:21.407Z,90.02
2022-10-11T09:31:56.784Z,89.60
2022-10-11T09:34:27.355Z,88.89
2022-10-11T09:37:11.352Z,88.10
2022-10-11T09:39:45.759Z,87.97
2022-10-11T09:42:12.679Z,87.24
2022-10-11T09:44:45.361Z,86.10
2022-10-11T09:47:16.772Z,85.21
2022-10-11T09:50:14.129Z,84.45
2022-10-11T09:52:55.431Z,84.88
2022-10-11T09:55:33.826Z,86.01
2022-10-11T09:58:01.254Z,86.67
2022-10-11T10:00:33.466Z,87.61
2022-10-11T10:03:03.264Z,86.23
2022-10-11T10:05:36.725Z,84.22
2022-10-11T10:08:23.894Z,83.73
2022-10-11T10:11:02.605Z,82.88
2022-10-11T10:13:52.068Z,82.87
2022-10-11T10:16:23.676Z,80.70
2022-10-11T10:18:55.337Z,81.04
2022-10-11T10:21:36.042Z,78.39
2022-10-11T10:24:20.589Z,79.60
2022-10-11T10:27:06.108Z,79.64
2022-10-11T10:29:33.070Z,78.30
2022-10-11T10:32:14.257Z,78.93
2022-10-11T10:35:21.386Z,78.12
2022-10-11T10:38:12.126Z,77.31
2022-10-11T10:40:53.806Z,78.21
2022-10-11T10:43:24.004Z,79.08
2022-10-11T10:46:11.984Z,79.75
2022-10-11T10:52:03.111Z,78.38
2022-10-11T10:54:52.486Z,79.77
2022-10-11T10:57:27.725Z,79.02
2022-10-11T11:00:15.680Z,79.38
2022-10-11T11:03:06.536Z,80.34
2022-10-11T11:05:45.643Z,79.77
2022-10-11T11:08:21.129Z,80.09
2022-10-11T11:10:59.097Z,79.87
2022-10-11T11:13:54.175Z,78.28
2022-10-11T11:16:38.209Z,78.91
2022-10-11T11:19:26.988Z,80.04
2022-10-11T11:22:03.609Z,79.58
2022-10-11T11:24:57.471Z,79.27
2022-10-11T11:27:45.502Z,81.16
2022-10-11T11:30:20.042Z,77.40
2022-10-11T11:33:03.651Z,76.31
2022-10-11T11:35:36.019Z,74.70
2022-10-11T11:38:14.326Z,73.01
2022-10-11T11:40:45.457Z,67.95
2022-10-11T11:43:28.149Z,69.85
2022-10-11T11:46:05.027Z,72.05
2022-10-11T11:48:31.953Z,71.81
2022-10-11T11:51:37.329Z,72.75
2022-10-11T11:54:42.267Z,72.51
2022-10-11T11:57:24.200Z,72.20
2022-10-11T11:59:59.846Z,75.62
2022-10-11T12:02:29.337Z,71.44
2022-10-11T12:04:57.204Z,72.02
2022-10-11T12:07:25.501Z,72.81
2022-10-11T12:09:55.244Z,72.04
2022-10-11T12:12:33.084Z,75.42
2022-10-11T12:15:17.796Z,74.88
2022-10-11T12:17:56.451Z,73.77
2022-10-11T12:20:28.951Z,74.25
2022-10-11T12:23:00.040Z,75.10
2022-10-11T12:25:26.734Z,75.27
2022-10-11T12:27:55.950Z,75.51
2022-10-11T12:30:44.454Z,71.70
2022-10-11T12:33:45.265Z,72.68
2022-10-11T12:36:40.773Z,74.07
2022-10-11T12:39:19.851Z,73.64
2022-10-11T12:41:53.501Z,72.20
2022-10-11T12:44:28.762Z,73.37
2022-10-11T12:46:55.477Z,68.39
2022-10-11T12:49:35.495Z,70.68
2022-10-11T12:52:15.986Z,70.44
2022-10-11T12:55:03.844Z,72.45
2022-10-11T12:57:33.170Z,71.94
2022-10-11T13:00:26.282Z,70.28
2022-10-11T13:02:52.978Z,71.56
2022-10-11T13:05:22.267Z,71.51
2022-10-11T13:07:50.068Z,69.33
2022-10-11T13:10:26.047Z,69.48
2022-10-11T13:12:54.189Z,69.40
2022-10-11T13:15:22.949Z,70.49
2022-10-11T13:17:52.779Z,71.80
2022-10-11T13:20:24.649Z,71.19
2022-10-11T13:22:53.743Z,68.62
2022-10-11T13:25:23.557Z,68.07
2022-10-11T13:27:53.492Z,68.95
2022-10-11T13:30:28.403Z,66.70
2022-10-11T13:32:56.168Z,63.42
2022-10-11T13:35:35.208Z,64.75
2022-10-11T13:38:02.749Z,64.49
2022-10-11T13:40:30.850Z,64.52
2022-10-11T13:42:58.789Z,65.41
2022-10-11T13:45:28.147Z,64.87
2022-10-11T13:47:55.220Z,66.53
2022-10-11T13:50:32.225Z,64.77
2022-10-11T13:53:10.669Z,63.77
2022-10-11T13:55:53.440Z,63.48
2022-10-11T13:58:27.310Z,66.19
2022-10-11T14:00:57.650Z,65.38
2022-10-11T14:03:40.514Z,63.75
2022-10-11T14:06:07.918Z,65.84
2022-10-11T14:08:46.636Z,61.17
2022-10-11T14:11:14.851Z,63.88
2022-10-11T14:13:47.263Z,64.13
2022-10-11T14:16:19.799Z,61.97
2022-10-11T14:18:52.258Z,62.96
2022-10-11T14:21:45.346Z,62.35
2022-10-11T14:24:13.086Z,61.69
2022-10-11T14:26:43.637Z,61.98
2022-10-11T14:29:31.185Z,61.60
2022-10-11T14:32:30.731Z,61.76
2022-10-11T14:34:58.277Z,63.25
2022-10-11T14:37:25.644Z,64.42
2022-10-11T14:39:52.440Z,63.65
2022-10-11T14:42:19.249Z,64.00
2022-10-11T14:44:45.887Z,67.75
2022-10-11T14:47:17.357Z,66.46
2022-10-11T14:49:45.306Z,65.54
2022-10-11T14:52:13.441Z,65.82
2022-10-11T14:54:40.888Z,66.25
2022-10-11T14:57:10.845Z,66.33
2022-10-11T14:59:38.255Z,69.19
2022-10-11T15:02:07.404Z,70.28
2022-10-11T15:04:34.111Z,71.33
2022-10-11T15:07:00.943Z,71.10
2022-10-11T15:09:27.834Z,71.30
2022-10-11T15:11:55.795Z,71.84
2022-10-11T15:14:23.802Z,71.79
2022-10-11T15:16:50.584Z,73.26
2022-10-11T15:19:22.983Z,73.83
2022-10-11T15:21:50.059Z,71.89
2022-10-11T15:24:20.142Z,70.90
2022-10-11T15:26:47.489Z,71.52
2022-10-11T15:29:16.401Z,70.75
2022-10-11T15:31:43.221Z,71.77
2022-10-11T15:34:11.141Z,72.24
2022-10-11T15:36:38.125Z,73.07
2022-10-11T15:39:22.407Z,73.34
2022-10-11T15:41:49.214Z,74.25
2022-10-11T15:44:16.033Z,74.97
2022-10-11T15:46:43.803Z,75.68
2022-10-11T15:49:13.895Z,76.72
2022-10-11T15:51:40.589Z,77.22
2022-10-11T15:54:07.357Z,77.60
2022-10-11T15:56:34.104Z,78.30
2022-10-11T15:59:00.731Z,78.79
2022-10-11T16:01:27.582Z,79.39
2022-10-11T16:03:54.215Z,79.70
2022-10-11T16:06:20.883Z,79.52
2022-10-11T16:08:48.030Z,79.98
2022-10-11T16:11:15.020Z,80.29
2022-10-11T16:13:41.660Z,80.09
2022-10-11T16:16:09.629Z,80.77
2022-10-11T16:18:36.630Z,80.98
2022-10-11T16:21:08.415Z,80.93
2022-10-11T16:23:35.550Z,81.34
2022-10-11T16:26:05.817Z,80.99
2022-10-11T16:28:33.438Z,81.82
2022-10-11T16:31:00.695Z,81.67
2022-10-11T16:33:27.774Z,82.14
2022-10-11T16:36:14.300Z,82.60
2022-10-11T16:38:41.424Z,81.38
2022-10-11T16:41:07.971Z,82.63
2022-10-11T16:43:35.431Z,82.93
2022-10-11T16:46:02.549Z,82.71
2022-10-11T16:48:29.524Z,82.61
2022-10-11T16:51:05.457Z,82.79
2022-10-11T16:53:34.263Z,84.11
2022-10-11T16:56:04.296Z,83.59
2022-10-11T16:58:31.250Z,82.99
2022-10-11T17:00:57.886Z,83.11
2022-10-11T17:03:24.635Z,83.78
2022-10-11T17:05:51.278Z,84.37
2022-10-11T17:08:18.221Z,83.17
2022-10-11T17:10:47.300Z,82.82
2022-10-11T17:13:14.137Z,83.35
2022-10-11T17:15:40.744Z,82.94
2022-10-11T17:18:07.691Z,83.03
2022-10-11T17:20:34.911Z,83.18
2022-10-11T17:23:01.600Z,82.39
2022-10-11T17:25:28.271Z,83.04
2022-10-11T17:27:56.186Z,83.62
2022-10-11T17:30:24.076Z,83.83
2022-10-11T17:32:51.850Z,84.02
2022-10-11T17:35:19.089Z,83.59
2022-10-11T17:37:45.768Z,83.68
2022-10-11T17:40:12.494Z,83.33
2022-10-11T17:42:39.141Z,82.65
2022-10-11T17:45:06.196Z,82.93
2022-10-11T17:47:33.443Z,82.91
2022-10-11T17:50:00.010Z,83.82
2022-10-11T17:52:26.644Z,83.43
2022-10-11T17:54:53.210Z,83.67
2022-10-11T17:57:20.392Z,82.81
2022-10-11T17:59:47.107Z,82.92
2022-10-11T18:02:14.626Z,82.79
2022-10-11T18:04:41.277Z,82.01
2022-10-11T18:07:08.011Z,80.83
2022-10-11T18:09:34.953Z,81.47
2022-10-11T18:12:01.619Z,81.70
2022-10-11T18:14:28.180Z,81.20
2022-10-11T18:16:54.838Z,81.42
2022-10-11T18:19:21.504Z,81.21
2022-10-11T18:21:48.100Z,81.25
2022-10-11T18:24:16.659Z,81.11
2022-10-11T18:26:45.006Z,81.86
2022-10-11T18:29:13.082Z,82.07
2022-10-11T18:31:40.850Z,81.65
2022-10-11T18:34:10.704Z,81.06
2022-10-11T18:36:38.104Z,81.99
2022-10-11T18:39:07.166Z,83.17
2022-10-11T18:41:35.637Z,83.86
2022-10-11T18:44:05.480Z,83.15
2022-10-11T18:46:32.635Z,83.13
2022-10-11T18:49:01.956Z,83.02
2022-10-11T18:51:31.357Z,82.60
2022-10-11T18:53:58.840Z,81.39
2022-10-11T18:56:26.898Z,82.21
2022-10-11T18:58:55.608Z,82.08
2022-10-11T19:01:28.314Z,81.55
2022-10-11T19:03:57.315Z,81.60
2022-10-11T19:06:33.170Z,81.51
2022-10-11T19:09:05.596Z,81.11
2022-10-11T19:11:33.079Z,80.83
2022-10-11T19:14:08.798Z,79.57
2022-10-11T19:16:38.094Z,79.16
2022-10-11T19:19:05.250Z,78.77
2022-10-11T19:21:32.511Z,79.22
2022-10-11T19:23:59.183Z,79.24
2022-10-11T19:26:38.212Z,79.30
2022-10-11T19:29:19.839Z,80.07
2022-10-11T19:31:52.885Z,79.75
2022-10-11T19:34:20.571Z,80.10
2022-10-11T19:36:50.014Z,80.79
2022-10-11T19:39:18.320Z,81.47
2022-10-11T19:41:45.722Z,80.56
2022-10-11T19:44:13.406Z,80.87
2022-10-11T19:46:55.955Z,80.46
2022-10-11T19:49:25.224Z,80.58
2022-10-11T19:51:55.766Z,80.35
2022-10-11T19:54:23.090Z,80.28
2022-10-11T19:56:49.750Z,79.26
2022-10-11T19:59:17.451Z,79.94
2022-10-11T20:01:49.351Z,79.66
2022-10-11T20:04:39.529Z,78.94
2022-10-11T20:07:04.798Z,79.53
2022-10-11T20:09:31.431Z,79.89
2022-10-11T20:11:58.870Z,80.43
2022-10-11T20:14:25.733Z,80.62
2022-10-11T20:16:52.930Z,79.77
2022-10-11T20:19:20.020Z,80.50
2022-10-11T20:21:47.806Z,80.36
2022-10-11T20:24:14.515Z,80.62
2022-10-11T20:26:41.135Z,80.53
2022-10-11T20:29:07.755Z,79.13
2022-10-11T20:31:38.301Z,79.62
2022-10-11T20:34:07.126Z,79.30
2022-10-11T20:36:35.927Z,79.13
2022-10-11T20:39:04.058Z,79.87
2022-10-11T20:41:34.315Z,79.69
2022-10-11T20:44:02.012Z,79.80
2022-10-11T20:46:31.540Z,80.86
2022-10-11T20:49:03.789Z,79.66
2022-10-11T20:51:32.515Z,79.13
2022-10-11T20:54:00.669Z,79.25
2022-10-11T20:56:28.298Z,78.89
2022-10-11T20:58:57.091Z,79.00
2022-10-11T21:01:29.524Z,80.36
2022-10-11T21:04:01.250Z,80.68
2022-10-11T21:06:28.893Z,80.72
2022-10-11T21:08:56.445Z,80.94
2022-10-11T21:11:27.769Z,80.65
2022-10-11T21:13:59.724Z,80.27
2022-10-11T21:16:27.445Z,80.76
2022-10-11T21:18:55.904Z,80.42
2022-10-11T21:21:23.944Z,80.61
2022-10-11T21:23:54.140Z,80.51
2022-10-11T21:26:20.814Z,79.34
2022-10-11T21:28:47.565Z,79.86
2022-10-11T21:31:17.328Z,79.03
2022-10-11T21:33:45.204Z,79.42
2022-10-11T21:36:17.392Z,79.99
2022-10-11T21:38:44.326Z,80.50
2022-10-11T21:41:17.110Z,79.94
2022-10-11T21:43:44.462Z,79.75
2022-10-11T21:46:17.650Z,80.01
2022-10-11T21:48:44.570Z,81.14
2022-10-11T21:51:31.022Z,82.03
2022-10-11T21:54:00.419Z,81.53
2022-10-11T21:56:28.456Z,81.36
2022-10-11T21:58:55.900Z,80.37
2022-10-11T22:01:22.977Z,80.44
2022-10-11T22:03:50.265Z,81.30
2022-10-11T22:06:17.107Z,81.58
2022-10-11T22:08:43.896Z,80.31
2022-10-11T22:11:11.228Z,80.95
2022-10-11T22:13:38.302Z,80.71
2022-10-11T22:16:06.654Z,81.27
2022-10-11T22:18:33.912Z,81.14
2022-10-11T22:21:08.425Z,81.17
2022-10-11T22:23:35.773Z,80.75
2022-10-11T22:26:26.980Z,81.11
2022-10-11T22:28:53.737Z,81.81
2022-10-11T22:31:21.694Z,82.43
2022-10-11T22:33:49.239Z,82.58
2022-10-11T22:36:19.335Z,81.39
2022-10-11T22:38:46.895Z,80.75
2022-10-11T22:41:13.763Z,80.51
2022-10-11T22:43:40.552Z,80.79
2022-10-11T22:46:08.083Z,80.91
2022-10-11T22:48:35.468Z,80.83
2022-10-11T22:51:02.510Z,80.37
2022-10-11T22:53:29.611Z,81.39
2022-10-11T22:55:56.526Z,80.98
2022-10-11T22:58:23.143Z,81.06
2022-10-11T23:00:49.756Z,80.45
2022-10-11T23:03:17.480Z,80.55
2022-10-11T23:05:44.110Z,80.77
2022-10-11T23:08:10.782Z,80.69
2022-10-11T23:10:40.450Z,81.30
2022-10-11T23:13:07.388Z,82.39
2022-10-11T23:15:33.969Z,81.84
2022-10-11T23:18:00.613Z,81.85
2022-10-11T23:20:27.282Z,81.75
2022-10-11T23:22:53.880Z,82.42
2022-10-11T23:25:20.496Z,82.44
2022-10-11T23:27:47.090Z,82.59
2022-10-11T23:30:14.062Z,82.77
2022-10-11T23:32:40.760Z,82.70
2022-10-11T23:35:07.796Z,83.25
2022-10-11T23:37:34.617Z,82.95
2022-10-11T23:40:01.528Z,83.54
2022-10-11T23:42:28.178Z,83.39
2022-10-11T23:44:54.712Z,83.23
2022-10-11T23:47:21.395Z,83.26
2022-10-11T23:49:48.029Z,83.69
2022-10-11T23:52:14.754Z,83.64
2022-10-11T23:54:41.431Z,83.64
2022-10-11T23:57:08.226Z,83.84
2022-10-11T23:59:34.769Z,84.29
